Atwood, OK

2:54 PM CDT on September 30, 2014 (GMT -0500)
Emergency Operations Center | Change Station
CLOSE
Current Station
Personal Weather Station
Location: Holdenville, OK
Elevation: 908 ft
Nearby Weather Stations
4.1 Earthquake: Perry, Oklahoma (16 hours ago)  

Elev 908 ft 35.08 °N, 96.40 °W | Updated 4 minutes ago

Mostly Cloudy
Mostly Cloudy
87.0 °F
Feels Like 90 °F
N
3.0
Wind Variable Wind from South
Gusts 3.0 mph

Today
High -- | Low -- °F
--% Chance of Precip.
Yesterday
High -- | Low -- °F
Precip. -- in
7:19 AM 7:10 PM
Waxing Crescent, 39% visible
Pressure 29.83 in
Visibility 10.0 miles
Clouds Scattered Clouds 5000 ft
Scattered Clouds 7000 ft
Mostly Cloudy 8000 ft
Heat Index 90 °F
Dew Point 68 °F
Humidity 53%
Rainfall 0.00 in
Snow Depth Not available.
UV 4 out of 12
Pollen 9.70 out of 12
Air Quality Not available.
Flu Activity Not available.
METAR KADH 301935Z AUTO 14010G15KT 10SM SCT050 SCT070 BKN080 30/19 A2983 RMK AO2

More Conditions Fewer Conditions

Pressure 29.83 in
Visibility 10.0 miles
Clouds Scattered Clouds 5000 ft
Scattered Clouds 7000 ft
Mostly Cloudy 8000 ft
Heat Index 90 °F
Dew Point 68 °F
Humidity 53%
Rainfall 0.00 in
Snow Depth Not available.
UV 4 out of 12
Pollen 9.70 out of 12
Air Quality Not available.
Flu Activity Not available.
METAR KADH 301935Z AUTO 14010G15KT 10SM SCT050 SCT070 BKN080 30/19 A2983 RMK AO2

More Conditions Fewer Conditions

10-Day Weather Forecast

Almanac

Astronomy

Sep. 30, 2014 Rise Set
Actual Time 7:19 AM CDT 7:10 PM CDT
Civil Twilight 6:54 AM CDT 7:35 PM CDT
Nautical Twilight 6:24 AM CDT 8:05 PM CDT
Astronomical Twilight 5:55 AM CDT 8:34 PM CDT
Moon 1:18 PM CDT 11:52 PM CDT
Length of Visible Light 12h 41m
Length of Day
11h 51m
Tomorrow will be 2m 10s shorter.
Waxing Crescent, 39% of the Moon is Illuminated
Today
Waxing Crescent
Oct 1
First Quarter
Oct 8
Full
Oct 15
Last Quarter
Oct 23
New

Today's Extremes

State Highs State Lows

Community

WunderPhotos

Upload Photos

1,757,731 photos uploaded!

Nearby

Snow Depth

Station Depth Elevation
No new snow has been reported.

Earthquake Activity

City Distance Mag. Time & Date
Perry, Oklahoma 110 miles 2.6 9:43 AM CDT
2014-09-30
Perry, Oklahoma 111 miles 3.5 1:06 AM CDT
2014-09-30
Perry, Oklahoma 112 miles 3.3 12:58 AM CDT
2014-09-30
Perry, Oklahoma 112 miles 2.7 10:18 PM CDT
2014-09-29
Minimum magnitude displayed is 2.5.

Coastal Water Temperatures

Place Temperature
No Stations Reporting

Nearby Weather Stations